Time;durP1;ratioP1;P1;durP2;ratioP2;P2;SDS_P1;SDS_P2;PMS_P1;PMS_P2;Temp;Humidity;BMP_temperature;BMP_pressure;BME280_temperature;BME280_humidity;BME280_pressure;Samples;Min_cycle;Max_cycle;Signal;HPM_P1;HPM_P2
2023/06/20 00:00:10;;;;;;;9.90;8.70;;;16.90;99.90;;;;;;4766129;30;20109;-96
2023/06/20 00:02:36;;;;;;;9.20;8.25;;;16.90;99.90;;;;;;4751869;30;20054;-96
2023/06/20 00:05:03;;;;;;;9.57;8.57;;;16.90;99.90;;;;;;4741080;30;20059;-96
2023/06/20 00:07:29;;;;;;;9.75;8.75;;;16.90;99.90;;;;;;4747031;30;20102;-96
2023/06/20 00:09:55;;;;;;;9.90;8.45;;;17.00;99.90;;;;;;4743062;30;20138;-96
2023/06/20 00:12:21;;;;;;;9.80;8.40;;;17.00;99.90;;;;;;4751538;30;20378;-94
2023/06/20 00:14:47;;;;;;;9.68;8.73;;;17.10;99.90;;;;;;4744339;30;20101;-96
2023/06/20 01:01:25;;;;;;;11.13;9.93;;;16.50;99.90;;;;;;4763735;30;20042;-96
2023/06/20 01:03:52;;;;;;;9.18;7.97;;;16.40;99.90;;;;;;4744194;30;20110;-96
2023/06/20 01:06:42;;;;;;;11.30;8.15;;;16.40;99.90;;;;;;4755754;30;20083;-95
2023/06/20 01:09:28;;;;;;;10.55;8.35;;;16.40;99.90;;;;;;4750950;30;20130;-95
2023/06/20 01:11:54;;;;;;;10.18;8.00;;;16.30;99.90;;;;;;4772740;30;20055;-95
2023/06/20 01:14:29;;;;;;;10.70;8.00;;;16.30;99.90;;;;;;4752266;30;20044;-96
2023/06/20 01:17:02;;;;;;;9.18;7.53;;;16.20;99.90;;;;;;4776893;30;20119;-96
2023/06/20 01:19:47;;;;;;;10.65;7.38;;;16.20;99.90;;;;;;4761933;30;20075;-96
2023/06/20 01:22:29;;;;;;;8.30;7.40;;;16.30;99.90;;;;;;4753028;30;20050;-96
2023/06/20 01:24:58;;;;;;;8.75;7.65;;;16.30;99.90;;;;;;4756344;30;20239;-96
2023/06/20 01:28:03;;;;;;;9.38;7.05;;;16.30;99.90;;;;;;4742875;30;20380;-95
2023/06/20 01:30:38;;;;;;;7.82;7.10;;;16.30;99.90;;;;;;4754373;30;20642;-95
2023/06/20 01:33:08;;;;;;;7.38;6.65;;;16.20;99.90;;;;;;4749507;30;20104;-95
2023/06/20 01:46:36;;;;;;;7.55;6.80;;;16.20;99.90;;;;;;4772608;30;20105;-94
2023/06/20 01:49:04;;;;;;;9.10;6.60;;;16.10;99.90;;;;;;4733312;30;20040;-96
2023/06/20 01:51:30;;;;;;;7.47;6.78;;;16.10;99.90;;;;;;4739960;30;20075;-96
2023/06/20 01:53:59;;;;;;;8.77;6.70;;;16.10;99.90;;;;;;4719733;30;20493;-96
2023/06/20 01:56:26;;;;;;;7.72;6.53;;;16.10;99.90;;;;;;4727919;30;20044;-95
2023/06/20 01:58:54;;;;;;;8.63;7.03;;;16.10;99.90;;;;;;4767750;30;20079;-95
2023/06/20 02:01:22;;;;;;;7.63;6.93;;;16.10;99.90;;;;;;4733795;30;20044;-95
2023/06/20 02:03:49;;;;;;;7.38;6.63;;;16.10;99.90;;;;;;4741611;30;20054;-96
2023/06/20 02:06:17;;;;;;;7.90;7.10;;;16.10;99.90;;;;;;4728310;30;20065;-95
2023/06/20 02:08:43;;;;;;;7.40;6.65;;;16.10;99.90;;;;;;4733035;30;20136;-96
2023/06/20 02:11:09;;;;;;;7.90;6.35;;;16.10;99.90;;;;;;4753544;30;20124;-96
2023/06/20 02:13:36;;;;;;;9.93;6.43;;;16.10;99.90;;;;;;4738806;30;20055;-96
2023/06/20 02:16:06;;;;;;;7.22;6.53;;;16.10;99.90;;;;;;4746821;30;20398;-96
2023/06/20 02:18:32;;;;;;;7.68;6.82;;;16.10;99.90;;;;;;4748153;30;20339;-95
2023/06/20 02:21:04;;;;;;;7.65;6.72;;;16.10;99.90;;;;;;4742341;30;20079;-96
2023/06/20 02:23:31;;;;;;;7.38;6.47;;;15.70;99.90;;;;;;4767895;30;20205;-96
2023/06/20 02:26:07;;;;;;;8.38;7.47;;;16.00;99.90;;;;;;4756429;30;20044;-96
2023/06/20 02:28:34;;;;;;;8.80;6.82;;;16.10;99.90;;;;;;4756795;30;20048;-96
2023/06/20 02:31:01;;;;;;;;;;;16.20;99.90;;;;;;4739945;30;20101;-96
2023/06/20 02:33:32;;;;;;;8.85;7.32;;;16.20;99.90;;;;;;4743436;30;19929;-95
2023/06/20 02:36:00;;;;;;;7.78;6.90;;;16.20;99.90;;;;;;4741699;30;20079;-96
2023/06/20 02:38:26;;;;;;;8.02;7.22;;;16.20;99.90;;;;;;4763883;30;20109;-96
2023/06/20 02:40:52;;;;;;;10.75;7.55;;;16.20;99.90;;;;;;4764233;30;20052;-95
2023/06/20 02:43:17;;;;;;;8.20;7.35;;;16.20;99.90;;;;;;4740531;30;20079;-95
2023/06/20 02:45:50;;;;;;;9.18;7.40;;;16.10;99.90;;;;;;4736489;30;20043;-96
2023/06/20 02:48:45;;;;;;;9.02;7.72;;;16.10;99.90;;;;;;4742593;30;20040;-96
2023/06/20 02:51:26;;;;;;;9.52;7.22;;;16.10;99.90;;;;;;4741254;30;20051;-95
2023/06/20 02:54:12;;;;;;;8.13;7.00;;;16.00;99.90;;;;;;4758252;30;20097;-95
2023/06/20 02:56:41;;;;;;;8.30;7.00;;;16.00;99.90;;;;;;4738412;30;20056;-96
2023/06/20 02:59:09;;;;;;;9.23;7.82;;;16.00;99.90;;;;;;4778344;30;20565;-96
2023/06/20 03:01:40;;;;;;;7.95;7.13;;;16.00;99.90;;;;;;4751684;30;20059;-95
2023/06/20 03:04:07;;;;;;;8.45;7.32;;;16.00;99.90;;;;;;4756859;30;20382;-96
2023/06/20 03:06:37;;;;;;;8.68;7.75;;;16.00;99.90;;;;;;4745994;30;20052;-96
2023/06/20 03:09:04;;;;;;;9.32;7.60;;;16.00;99.90;;;;;;4769414;30;20047;-96
2023/06/20 03:11:31;;;;;;;11.38;7.65;;;16.00;99.90;;;;;;4741945;30;20036;-95
2023/06/20 03:13:58;;;;;;;9.30;7.88;;;15.90;99.90;;;;;;4741263;30;20596;-96
2023/06/20 03:16:26;;;;;;;11.65;7.88;;;15.90;99.90;;;;;;4741014;30;20047;-96
2023/06/20 03:18:53;;;;;;;9.73;7.72;;;15.90;99.90;;;;;;4761635;30;20043;-94
2023/06/20 03:21:20;;;;;;;10.30;7.68;;;15.90;99.90;;;;;;4758657;30;20055;-96
2023/06/20 03:23:46;;;;;;;8.75;7.72;;;15.90;99.90;;;;;;4745332;30;20048;-96
2023/06/20 03:26:12;;;;;;;9.40;8.50;;;15.90;99.90;;;;;;4748904;30;20048;-96
2023/06/20 03:28:38;;;;;;;9.93;8.15;;;16.00;99.90;;;;;;4770941;30;20044;-96
2023/06/20 03:31:04;;;;;;;9.77;8.77;;;16.00;99.90;;;;;;4732279;30;20039;-96
2023/06/20 03:33:30;;;;;;;9.50;8.50;;;16.00;99.90;;;;;;4737319;30;20055;-96
2023/06/20 03:35:56;;;;;;;9.48;8.50;;;16.00;99.90;;;;;;4748793;30;20046;-96
2023/06/20 03:38:21;;;;;;;10.25;9.15;;;16.00;99.90;;;;;;4756860;30;20043;-95
2023/06/20 03:40:49;;;;;;;10.20;9.10;;;16.00;99.90;;;;;;4738725;30;20052;-96
2023/06/20 03:43:15;;;;;;;10.55;8.98;;;16.10;99.90;;;;;;4752467;30;20519;-96
2023/06/20 03:45:41;;;;;;;12.73;8.93;;;16.10;99.90;;;;;;4751974;30;20138;-96
2023/06/20 03:48:07;;;;;;;9.85;8.85;;;16.10;99.90;;;;;;4767267;30;20044;-96
2023/06/20 03:50:32;;;;;;;11.98;9.00;;;16.10;99.90;;;;;;4741112;30;20058;-96
2023/06/20 03:52:58;;;;;;;10.40;8.43;;;16.10;99.90;;;;;;4745525;30;20092;-96
2023/06/20 03:55:24;;;;;;;11.13;9.95;;;16.20;99.90;;;;;;4753496;30;20043;-96
2023/06/20 03:57:49;;;;;;;12.25;8.95;;;16.20;99.90;;;;;;4737889;30;20040;-96
2023/06/20 04:00:16;;;;;;;11.05;9.50;;;16.20;99.90;;;;;;4750214;30;20044;-95
2023/06/20 04:02:41;;;;;;;10.60;9.50;;;16.20;99.90;;;;;;4739903;30;20509;-96
2023/06/20 04:05:11;;;;;;;10.40;9.30;;;16.20;99.90;;;;;;4759116;30;20047;-96
2023/06/20 04:07:37;;;;;;;10.65;9.00;;;16.30;99.90;;;;;;4743752;30;20054;-96
2023/06/20 04:10:03;;;;;;;9.43;8.52;;;16.20;99.90;;;;;;4776273;30;20047;-96
2023/06/20 04:12:29;;;;;;;12.40;9.75;;;16.30;99.90;;;;;;4767738;30;20039;-96
2023/06/20 04:14:57;;;;;;;11.02;9.63;;;16.30;99.90;;;;;;4741619;30;20631;-96
2023/06/20 04:17:23;;;;;;;11.77;9.80;;;16.30;99.90;;;;;;4746804;30;20074;-96
2023/06/20 04:19:49;;;;;;;13.48;9.48;;;16.40;99.90;;;;;;4759855;30;20071;-96
2023/06/20 04:22:15;;;;;;;10.52;8.52;;;16.40;99.90;;;;;;4734234;30;20048;-96
2023/06/20 04:24:41;;;;;;;9.93;8.93;;;16.50;99.90;;;;;;4740261;30;20055;-96
2023/06/20 04:27:06;;;;;;;10.23;9.07;;;16.60;99.90;;;;;;4726626;30;20039;-96
2023/06/20 04:29:33;;;;;;;11.30;8.70;;;16.60;99.90;;;;;;4740434;30;20504;-96
2023/06/20 04:32:02;;;;;;;9.90;8.90;;;16.60;99.90;;;;;;4738477;30;20054;-96
2023/06/20 04:34:27;;;;;;;9.85;8.65;;;16.70;99.90;;;;;;4737766;30;20048;-95
2023/06/20 04:36:53;;;;;;;9.80;7.90;;;16.70;99.90;;;;;;4755123;30;20054;-96
2023/06/20 04:39:19;;;;;;;11.93;9.23;;;16.70;99.90;;;;;;4738276;30;20039;-92
2023/06/20 04:41:45;;;;;;;12.23;8.95;;;16.80;99.90;;;;;;4762717;30;20581;-92
2023/06/20 04:44:10;;;;;;;12.07;8.65;;;16.80;99.90;;;;;;4779537;29;20055;-93
2023/06/20 04:46:36;;;;;;;11.95;8.90;;;16.90;99.90;;;;;;4774107;29;20039;-91
2023/06/20 04:49:02;;;;;;;9.88;8.88;;;17.00;99.90;;;;;;4791749;29;20027;-92
2023/06/20 04:51:27;;;;;;;10.77;8.25;;;17.00;99.90;;;;;;4767873;29;20031;-95
2023/06/20 04:53:53;;;;;;;9.93;8.77;;;17.10;99.90;;;;;;4767749;29;20151;-93
2023/06/20 04:56:20;;;;;;;11.30;9.32;;;17.10;99.90;;;;;;4761473;30;20040;-94
2023/06/20 04:58:46;;;;;;;10.57;9.53;;;17.20;99.90;;;;;;4743575;30;20054;-93
2023/06/20 05:01:14;;;;;;;9.30;8.43;;;17.20;99.90;;;;;;4752968;30;20134;-93
2023/06/20 05:03:42;;;;;;;9.75;8.75;;;17.30;99.90;;;;;;4758884;30;20139;-94
2023/06/20 05:06:08;;;;;;;8.52;7.68;;;17.30;99.90;;;;;;4746592;30;20044;-93
2023/06/20 05:08:34;;;;;;;9.95;8.50;;;17.30;99.90;;;;;;4744283;30;20071;-94
2023/06/20 05:11:00;;;;;;;9.23;8.10;;;17.40;99.90;;;;;;4749766;30;20079;-93
2023/06/20 05:13:26;;;;;;;8.45;7.57;;;;;;;;;;4749289;30;20075;-93
2023/06/20 05:15:52;;;;;;;8.25;7.25;;;17.40;99.90;;;;;;4730413;30;20050;-94
2023/06/20 05:18:18;;;;;;;8.45;7.57;;;17.40;99.90;;;;;;4743550;30;20043;-94
2023/06/20 05:20:43;;;;;;;7.90;7.18;;;17.40;99.90;;;;;;4760188;30;20048;-93
2023/06/20 05:23:09;;;;;;;8.63;7.63;;;17.40;99.90;;;;;;4748161;30;20096;-93
2023/06/20 05:25:36;;;;;;;11.02;7.63;;;17.40;99.90;;;;;;4747267;30;20058;-94
2023/06/20 05:28:03;;;;;;;11.07;8.75;;;17.50;99.90;;;;;;4743114;30;20040;-93
2023/06/20 05:30:28;;;;;;;8.93;7.95;;;17.40;99.90;;;;;;4763770;30;20048;-94
2023/06/20 05:32:54;;;;;;;9.30;8.40;;;17.50;99.90;;;;;;4753844;30;20050;-93
2023/06/20 05:35:20;;;;;;;8.73;7.82;;;17.50;99.90;;;;;;4765447;30;20052;-92
2023/06/20 05:37:49;;;;;;;8.93;7.25;;;17.50;99.90;;;;;;4758157;30;20048;-93
2023/06/20 05:40:15;;;;;;;8.07;7.30;;;17.60;99.90;;;;;;4741154;30;20043;-92
2023/06/20 05:42:41;;;;;;;9.57;8.05;;;17.60;99.90;;;;;;4757318;30;20086;-93
2023/06/20 05:45:07;;;;;;;9.23;8.25;;;17.60;99.90;;;;;;4737318;30;20131;-94
2023/06/20 05:47:34;;;;;;;8.85;7.95;;;17.60;99.90;;;;;;4757375;30;20062;-93
2023/06/20 05:49:59;;;;;;;8.13;7.33;;;17.70;99.90;;;;;;4728512;30;20044;-93
2023/06/20 05:52:25;;;;;;;8.55;7.38;;;17.70;99.90;;;;;;4750141;29;20485;-93
2023/06/20 05:54:56;;;;;;;7.60;6.80;;;17.80;99.90;;;;;;4784285;29;20068;-94
2023/06/20 05:57:22;;;;;;;8.07;7.28;;;17.80;99.90;;;;;;4757795;29;20055;-94
2023/06/20 05:59:48;;;;;;;7.72;6.97;;;17.80;99.90;;;;;;4770845;29;20048;-91
2023/06/20 06:02:15;;;;;;;8.13;7.20;;;17.90;99.90;;;;;;4771702;29;20108;-92
2023/06/20 06:04:44;;;;;;;7.38;6.65;;;17.90;99.90;;;;;;4737626;30;20701;-96
2023/06/20 06:07:10;;;;;;;8.07;7.15;;;17.90;99.90;;;;;;4736636;30;20496;-92
2023/06/20 06:09:36;;;;;;;7.18;6.55;;;17.90;99.90;;;;;;4731213;30;20536;-94
2023/06/20 06:12:02;;;;;;;7.80;7.05;;;18.00;99.90;;;;;;4727944;30;20136;-94
2023/06/20 06:14:28;;;;;;;8.63;7.57;;;18.00;99.90;;;;;;4747872;30;20044;-94
2023/06/20 06:16:55;;;;;;;7.75;6.93;;;18.00;99.90;;;;;;4736376;30;20046;-94
2023/06/20 06:19:21;;;;;;;8.95;7.32;;;18.10;99.90;;;;;;4744256;30;20043;-95
2023/06/20 06:21:47;;;;;;;9.45;7.55;;;18.10;99.90;;;;;;4751863;30;20106;-94
2023/06/20 06:24:21;;;;;;;9.50;7.03;;;18.10;99.90;;;;;;4746320;30;20083;-94
2023/06/20 06:26:50;;;;;;;7.97;7.17;;;18.20;99.90;;;;;;4754277;30;20053;-94
2023/06/20 06:29:17;;;;;;;8.27;7.05;;;18.20;99.90;;;;;;4740376;30;20043;-94
2023/06/20 06:31:44;;;;;;;8.15;7.25;;;18.30;99.90;;;;;;4756119;30;20055;-94
2023/06/20 06:34:10;;;;;;;8.70;7.80;;;18.30;99.90;;;;;;4744342;30;20051;-94
2023/06/20 06:36:36;;;;;;;7.93;7.13;;;18.40;99.90;;;;;;4743665;30;20044;-95
2023/06/20 06:39:02;;;;;;;10.07;8.18;;;18.50;99.90;;;;;;4743459;30;20040;-92
2023/06/20 06:41:28;;;;;;;8.18;7.38;;;18.60;99.90;;;;;;4750892;30;20062;-94
2023/06/20 06:43:54;;;;;;;8.77;7.60;;;18.70;99.90;;;;;;4744816;30;20043;-93
2023/06/20 06:46:20;;;;;;;8.40;7.65;;;18.70;99.90;;;;;;4740668;30;20135;-93
2023/06/20 06:48:47;;;;;;;7.90;7.10;;;18.80;99.90;;;;;;4738846;30;20619;-93
2023/06/20 06:51:13;;;;;;;7.70;6.90;;;18.90;99.90;;;;;;4750282;30;20039;-94
2023/06/20 06:53:39;;;;;;;8.02;7.22;;;18.90;99.90;;;;;;4742495;30;20400;-96
2023/06/20 06:56:15;;;;;;;7.47;6.78;;;19.00;99.90;;;;;;4741375;30;20052;-96
2023/06/20 06:58:42;;;;;;;9.63;8.13;;;19.10;99.90;;;;;;4746815;30;20039;-96
2023/06/20 07:01:11;;;;;;;9.40;7.38;;;19.10;99.90;;;;;;4764457;30;20071;-96
2023/06/20 07:03:36;;;;;;;9.35;7.40;;;19.20;99.90;;;;;;4750934;30;20056;-95
2023/06/20 07:06:03;;;;;;;9.13;7.32;;;19.30;99.90;;;;;;4741568;30;20047;-96
2023/06/20 07:08:34;;;;;;;7.70;6.95;;;19.40;99.90;;;;;;4763860;30;20096;-96
2023/06/20 07:11:00;;;;;;;7.95;6.72;;;19.50;99.90;;;;;;4755258;30;20135;-96
2023/06/20 07:13:26;;;;;;;8.15;7.15;;;19.50;99.90;;;;;;4730078;30;20138;-95
2023/06/20 07:15:52;;;;;;;8.07;7.28;;;19.60;99.90;;;;;;4756202;30;20043;-96
2023/06/20 07:18:18;;;;;;;8.60;7.15;;;19.70;99.90;;;;;;4740819;30;20089;-96
2023/06/20 07:20:43;;;;;;;7.55;6.85;;;19.80;99.90;;;;;;4755933;30;20080;-96
2023/06/20 07:23:09;;;;;;;8.13;6.60;;;19.90;99.90;;;;;;4751129;30;20048;-95
2023/06/20 07:25:35;;;;;;;8.27;6.82;;;20.00;99.90;;;;;;4746433;30;20054;-96
2023/06/20 07:28:00;;;;;;;7.85;7.15;;;20.20;99.90;;;;;;4751547;30;20042;-96
2023/06/20 07:30:26;;;;;;;7.57;6.78;;;20.20;99.90;;;;;;4746885;30;20040;-95
2023/06/20 07:32:52;;;;;;;10.80;6.75;;;20.40;99.90;;;;;;4725902;30;20044;-93
2023/06/20 07:35:18;;;;;;;7.50;6.50;;;20.50;99.90;;;;;;4748648;30;20104;-95
2023/06/20 07:37:44;;;;;;;8.00;6.93;;;20.60;99.90;;;;;;4749459;30;20050;-96
2023/06/20 07:40:13;;;;;;;6.97;6.28;;;20.70;99.90;;;;;;4741120;30;20056;-96
2023/06/20 07:42:39;;;;;;;6.50;5.90;;;20.80;99.90;;;;;;4759024;30;20473;-96
2023/06/20 07:45:07;;;;;;;6.93;6.22;;;20.90;99.90;;;;;;4754465;30;20055;-96
2023/06/20 07:47:33;;;;;;;7.28;5.70;;;21.00;99.90;;;;;;4762874;30;20043;-96
2023/06/20 07:49:59;;;;;;;7.40;6.00;;;21.00;99.90;;;;;;4775159;30;20072;-96
2023/06/20 07:52:28;;;;;;;7.05;5.90;;;21.20;99.90;;;;;;4753917;30;20048;-96
2023/06/20 07:55:17;;;;;;;;;;;;;;;;;;;;;
2023/06/20 08:01:29;;;;;;;7.00;6.30;;;21.50;99.90;;;;;;4758466;30;20105;-96
2023/06/20 08:04:11;;;;;;;7.60;6.05;;;21.60;99.90;;;;;;4761465;30;20066;-96
2023/06/20 08:11:10;;;;;;;6.55;5.95;;;21.70;99.90;;;;;;4707667;30;20061;-96
2023/06/20 08:13:36;;;;;;;6.10;5.50;;;21.70;99.90;;;;;;4737448;30;20051;-96
2023/06/20 08:16:04;;;;;;;6.93;6.22;;;21.70;99.90;;;;;;4758168;30;20601;-95
2023/06/20 08:18:30;;;;;;;7.00;5.90;;;21.90;99.90;;;;;;4758548;30;20051;-96
2023/06/20 08:20:56;;;;;;;6.70;5.90;;;21.70;99.90;;;;;;4745112;30;20043;-96
2023/06/20 08:23:26;;;;;;;6.63;5.60;;;21.80;99.90;;;;;;4763320;30;20081;-95
2023/06/20 08:25:56;;;;;;;5.47;4.97;;;21.90;99.90;;;;;;4778337;30;20510;-96
2023/06/20 08:28:22;;;;;;;6.15;5.55;;;22.00;99.90;;;;;;4761106;30;20056;-95
2023/06/20 08:30:48;;;;;;;6.55;5.60;;;22.00;99.90;;;;;;4723896;30;20047;-96
2023/06/20 08:33:17;;;;;;;6.20;5.57;;;22.00;99.90;;;;;;4743553;30;20130;-96
2023/06/20 08:35:46;;;;;;;6.93;6.10;;;22.00;99.90;;;;;;4758517;30;20596;-96
2023/06/20 08:38:15;;;;;;;7.15;5.90;;;22.00;99.90;;;;;;4775651;30;20043;-96
2023/06/20 08:40:41;;;;;;;6.47;5.88;;;22.00;99.90;;;;;;4753117;30;20051;-95
2023/06/20 08:43:10;;;;;;;6.07;5.47;;;22.00;99.90;;;;;;4742180;30;20053;-96
2023/06/20 08:45:38;;;;;;;6.28;5.68;;;22.00;99.90;;;;;;4762941;30;20071;-96
2023/06/20 08:48:04;;;;;;;6.45;5.95;;;22.00;99.90;;;;;;4743599;30;20381;-96
2023/06/20 08:50:31;;;;;;;6.53;5.93;;;21.90;99.90;;;;;;4756181;30;20044;-96
2023/06/20 08:53:03;;;;;;;6.87;6.20;;;21.90;99.90;;;;;;4766643;30;20436;-96
2023/06/20 08:55:31;;;;;;;6.28;5.45;;;21.80;99.90;;;;;;4745057;30;20048;-95
2023/06/20 08:58:00;;;;;;;6.38;5.78;;;21.80;99.90;;;;;;4774993;30;20094;-96
2023/06/20 09:00:35;;;;;;;5.88;5.28;;;21.80;99.90;;;;;;4770982;30;20047;-95
2023/06/20 09:03:28;;;;;;;;;;;21.80;99.90;;;;;;4759057;30;20079;-96
2023/06/20 09:06:00;;;;;;;6.38;5.78;;;21.70;99.90;;;;;;4747183;30;20013;-96
2023/06/20 09:08:37;;;;;;;6.00;5.40;;;21.90;99.90;;;;;;4756874;30;20108;-96
2023/06/20 09:11:10;;;;;;;7.55;5.40;;;21.90;99.90;;;;;;4760090;30;20051;-96
2023/06/20 09:13:41;;;;;;;6.47;5.72;;;21.90;99.90;;;;;;4759927;30;20048;-96
2023/06/20 09:16:20;;;;;;;6.45;5.75;;;22.00;99.90;;;;;;4750223;30;20047;-96
2023/06/20 09:18:57;;;;;;;5.75;5.20;;;22.10;99.90;;;;;;4744653;30;20127;-95
2023/06/20 09:21:26;;;;;;;6.50;5.90;;;22.30;99.90;;;;;;4741083;30;20040;-96
2023/06/20 09:24:08;;;;;;;6.10;5.43;;;22.30;99.90;;;;;;4741632;30;20047;-96
2023/06/20 09:26:35;;;;;;;6.18;5.55;;;22.50;99.90;;;;;;4757006;30;20060;-96
2023/06/20 09:29:09;;;;;;;6.20;5.60;;;22.50;99.90;;;;;;4718809;30;20048;-96
2023/06/20 09:31:48;;;;;;;5.55;5.05;;;22.60;99.90;;;;;;4758876;30;20059;-96
2023/06/20 09:34:18;;;;;;;6.07;5.47;;;22.70;99.90;;;;;;4757444;30;20036;-96
2023/06/20 09:36:47;;;;;;;6.45;5.78;;;22.90;99.90;;;;;;4758280;30;20044;-96
2023/06/20 09:39:17;;;;;;;5.93;5.32;;;23.10;99.90;;;;;;4741503;30;20130;-96
2023/06/20 09:41:54;;;;;;;5.65;5.15;;;23.30;99.90;;;;;;4737301;30;20048;-96
2023/06/20 09:44:32;;;;;;;6.47;5.07;;;23.40;99.90;;;;;;4758885;30;20043;-96
2023/06/20 09:46:58;;;;;;;5.18;4.68;;;23.50;99.90;;;;;;4758623;30;20040;-95
2023/06/20 09:49:29;;;;;;;5.45;4.28;;;23.60;99.90;;;;;;4757404;30;20040;-96
2023/06/20 09:52:04;;;;;;;5.18;4.50;;;23.60;99.90;;;;;;4745006;30;20047;-96
2023/06/20 09:54:44;;;;;;;5.05;4.55;;;23.60;99.90;;;;;;4742498;30;20044;-94
2023/06/20 09:57:16;;;;;;;4.85;4.32;;;23.70;99.90;;;;;;4754765;30;20074;-96
2023/06/20 09:59:43;;;;;;;5.40;4.90;;;23.80;99.90;;;;;;4754934;30;20040;-96
2023/06/20 10:02:18;;;;;;;4.90;4.23;;;23.80;99.90;;;;;;4736604;30;20060;-96
2023/06/20 10:04:46;;;;;;;6.18;4.53;;;24.10;99.90;;;;;;4751982;30;20520;-96
2023/06/20 10:07:16;;;;;;;5.18;4.70;;;23.80;99.90;;;;;;4780421;30;20048;-96
2023/06/20 10:09:48;;;;;;;4.45;4.05;;;24.00;99.90;;;;;;4745531;30;20059;-96
2023/06/20 10:12:16;;;;;;;4.60;4.10;;;24.10;99.90;;;;;;4736862;30;20048;-96
2023/06/20 10:14:42;;;;;;;5.15;3.78;;;24.20;99.90;;;;;;4764881;30;20174;-96
2023/06/20 10:17:09;;;;;;;4.27;3.87;;;24.30;99.90;;;;;;4744249;30;20041;-96
2023/06/20 10:19:48;;;;;;;;;;;24.40;99.90;;;;;;4748635;30;20461;-96
2023/06/20 10:22:38;;;;;;;4.05;3.65;;;24.50;99.90;;;;;;4762117;30;19921;-96
2023/06/20 10:25:15;;;;;;;4.25;3.42;;;24.70;99.90;;;;;;4745578;30;20055;-96
2023/06/20 10:28:06;;;;;;;3.33;3.03;;;24.90;99.90;;;;;;4749014;30;20044;-95
2023/06/20 10:30:53;;;;;;;3.13;2.83;;;25.30;99.90;;;;;;4742269;30;20051;-96
2023/06/20 10:33:29;;;;;;;3.35;3.00;;;25.60;99.90;;;;;;4734508;30;20494;-95
2023/06/20 10:36:06;;;;;;;2.90;2.60;;;25.80;99.90;;;;;;4747462;30;20071;-96
2023/06/20 10:38:34;;;;;;;3.72;3.40;;;26.20;99.90;;;;;;4755105;30;20484;-96
2023/06/20 10:41:06;;;;;;;3.25;2.95;;;26.20;99.90;;;;;;4743172;30;20103;-96
2023/06/20 10:43:51;;;;;;;4.43;2.50;;;26.30;99.90;;;;;;4743230;30;20078;-96
2023/06/20 10:46:48;;;;;;;3.60;2.85;;;26.30;99.90;;;;;;4765035;30;20544;-96
2023/06/20 10:49:13;;;;;;;3.30;3.00;;;26.50;99.90;;;;;;4753595;30;20564;-95
2023/06/20 10:51:58;;;;;;;3.78;3.47;;;26.50;99.90;;;;;;4747298;30;20063;-95
2023/06/20 10:54:35;;;;;;;3.67;3.30;;;26.40;99.90;;;;;;4759304;30;20047;-96
2023/06/20 10:57:04;;;;;;;3.58;3.28;;;26.50;99.90;;;;;;4760997;30;20104;-96
2023/06/20 10:59:30;;;;;;;4.55;3.72;;;26.60;99.90;;;;;;4750951;30;20042;-96
2023/06/20 11:02:03;;;;;;;3.10;2.80;;;26.70;99.90;;;;;;4748017;30;20734;-96
2023/06/20 11:04:29;;;;;;;3.90;3.53;;;26.80;99.90;;;;;;4765630;30;20054;-96
2023/06/20 11:06:54;;;;;;;4.03;3.73;;;26.80;99.90;;;;;;4737723;30;20055;-96
2023/06/20 11:09:25;;;;;;;4.23;3.30;;;26.70;99.90;;;;;;4752629;30;20050;-95
2023/06/20 11:11:51;;;;;;;4.00;3.70;;;26.80;99.90;;;;;;4750586;30;20054;-95
2023/06/20 11:14:21;;;;;;;4.05;3.40;;;26.80;99.90;;;;;;4762532;30;20040;-96
2023/06/20 11:16:58;;;;;;;5.07;3.60;;;26.90;99.90;;;;;;4743694;30;20028;-96
2023/06/20 11:19:27;;;;;;;4.22;3.25;;;27.00;99.90;;;;;;4761968;30;20109;-96
2023/06/20 11:21:58;;;;;;;3.13;2.78;;;27.00;99.90;;;;;;4749397;30;20055;-96
2023/06/20 11:24:25;;;;;;;4.18;3.30;;;27.00;99.90;;;;;;4753481;30;20103;-96
2023/06/20 11:27:15;;;;;;;5.53;3.60;;;27.00;99.90;;;;;;4756474;30;20101;-96
2023/06/20 11:29:41;;;;;;;5.13;2.88;;;27.00;99.90;;;;;;4741781;30;20048;-95
2023/06/20 11:32:09;;;;;;;3.37;3.07;;;27.10;99.90;;;;;;4752876;30;20108;-96
2023/06/20 11:34:53;;;;;;;3.30;3.00;;;27.10;99.90;;;;;;4749429;30;20039;-96
2023/06/20 11:37:19;;;;;;;3.38;2.95;;;27.10;99.90;;;;;;4746200;30;20531;-95
2023/06/20 11:39:45;;;;;;;3.60;2.83;;;27.20;99.90;;;;;;4741518;30;20047;-96
2023/06/20 11:42:18;;;;;;;4.03;3.45;;;27.40;99.90;;;;;;4754875;30;20040;-95
2023/06/20 11:44:44;;;;;;;3.55;3.25;;;27.50;99.90;;;;;;4755181;30;20082;-96
2023/06/20 11:47:10;;;;;;;3.67;3.38;;;27.50;99.90;;;;;;4754342;30;20036;-96
2023/06/20 11:49:40;;;;;;;3.50;3.20;;;27.50;99.90;;;;;;4769282;30;20315;-96
2023/06/20 11:52:07;;;;;;;3.65;3.35;;;27.40;99.90;;;;;;4740672;30;20501;-95
2023/06/20 11:54:50;;;;;;;4.03;3.45;;;27.40;99.90;;;;;;4757737;30;20044;-96
2023/06/20 11:57:31;;;;;;;4.35;3.80;;;27.40;99.90;;;;;;4752407;30;20080;-94
2023/06/20 12:00:06;;;;;;;5.30;3.47;;;27.40;99.90;;;;;;4764204;30;20078;-95
2023/06/20 12:02:37;;;;;;;4.50;4.10;;;27.30;99.90;;;;;;4752549;30;20067;-95
2023/06/20 12:05:03;;;;;;;4.18;3.88;;;27.30;99.90;;;;;;4739142;30;20047;-94
2023/06/20 12:08:01;;;;;;;4.30;3.90;;;27.50;99.90;;;;;;4758731;30;20047;-94
2023/06/20 12:10:33;;;;;;;4.32;3.88;;;27.40;99.90;;;;;;4746127;30;20059;-96
2023/06/20 12:13:05;;;;;;;5.18;4.13;;;27.30;99.90;;;;;;4725838;30;20456;-96
2023/06/20 12:15:31;;;;;;;5.25;4.47;;;27.30;99.90;;;;;;4752919;30;20047;-95
2023/06/20 12:17:57;;;;;;;4.10;3.70;;;27.30;99.90;;;;;;4737999;30;20644;-95
2023/06/20 12:20:28;;;;;;;6.27;4.20;;;27.30;99.90;;;;;;4745279;30;20557;-96
2023/06/20 12:22:54;;;;;;;4.57;3.53;;;27.20;99.90;;;;;;4756998;30;20043;-96
2023/06/20 12:25:20;;;;;;;4.23;3.83;;;27.20;99.90;;;;;;4742009;30;20119;-96
2023/06/20 12:27:46;;;;;;;4.67;3.77;;;27.20;99.90;;;;;;4762821;30;20384;-95
2023/06/20 12:30:13;;;;;;;3.70;3.40;;;27.10;99.90;;;;;;4757030;30;20058;-96
2023/06/20 12:32:39;;;;;;;4.05;3.75;;;26.90;99.90;;;;;;4740574;30;20055;-95
2023/06/20 12:35:05;;;;;;;4.07;3.70;;;26.90;99.90;;;;;;4754130;30;20048;-96
2023/06/20 12:37:31;;;;;;;4.35;3.60;;;26.90;99.90;;;;;;4740982;30;20382;-96
2023/06/20 12:39:56;;;;;;;4.30;3.90;;;26.80;99.90;;;;;;4744443;30;20055;-96
2023/06/20 12:42:22;;;;;;;4.23;3.83;;;26.70;99.90;;;;;;4741366;30;20144;-96
2023/06/20 12:44:48;;;;;;;3.93;3.63;;;26.90;99.90;;;;;;4761211;30;20055;-93
2023/06/20 12:47:14;;;;;;;4.57;4.13;;;27.10;99.90;;;;;;4758544;30;20044;-93
2023/06/20 12:49:39;;;;;;;4.50;3.80;;;27.30;99.90;;;;;;4749418;30;20551;-93
2023/06/20 12:52:08;;;;;;;5.03;3.87;;;27.40;99.90;;;;;;4739087;30;20067;-93
2023/06/20 12:54:34;;;;;;;4.60;3.85;;;27.50;99.90;;;;;;4757142;30;20047;-93
2023/06/20 12:57:00;;;;;;;4.60;4.20;;;27.40;99.90;;;;;;4723305;30;20041;-93
2023/06/20 12:59:25;;;;;;;5.65;4.95;;;27.40;99.90;;;;;;4737622;30;20051;-92
2023/06/20 13:01:51;;;;;;;5.57;5.03;;;27.30;99.90;;;;;;4749433;30;20113;-95
2023/06/20 13:04:17;;;;;;;5.83;5.33;;;27.10;99.90;;;;;;4743982;30;20055;-94
2023/06/20 13:06:43;;;;;;;5.57;5.00;;;27.00;99.90;;;;;;4762738;30;20666;-93
2023/06/20 13:09:11;;;;;;;5.97;5.40;;;26.90;99.90;;;;;;4750093;30;20557;-94
2023/06/20 13:11:37;;;;;;;6.50;5.03;;;26.90;99.90;;;;;;4766343;30;20059;-94
2023/06/20 13:14:03;;;;;;;4.97;4.57;;;26.80;99.90;;;;;;4761955;30;20059;-91
2023/06/20 13:16:28;;;;;;;6.17;3.50;;;26.70;99.90;;;;;;4745174;30;20044;-93
2023/06/20 13:18:59;;;;;;;4.50;4.10;;;26.60;99.90;;;;;;4750105;30;20620;-92
2023/06/20 13:21:25;;;;;;;6.65;4.10;;;26.60;99.90;;;;;;4751977;30;20113;-93
2023/06/20 13:23:51;;;;;;;4.57;4.15;;;26.60;99.90;;;;;;4743097;30;20396;-93
2023/06/20 13:26:18;;;;;;;4.73;4.33;;;26.50;99.90;;;;;;4735549;30;20055;-92
2023/06/20 13:28:43;;;;;;;6.68;4.40;;;26.60;99.90;;;;;;4742697;30;20168;-92
2023/06/20 13:31:09;;;;;;;5.00;4.60;;;26.60;99.90;;;;;;4742084;30;20079;-93
2023/06/20 13:33:35;;;;;;;5.07;4.63;;;26.80;99.90;;;;;;4754981;30;20121;-93
2023/06/20 13:36:07;;;;;;;5.17;4.77;;;27.00;99.90;;;;;;4752203;30;20098;-93
2023/06/20 13:38:36;;;;;;;5.78;5.32;;;27.10;99.90;;;;;;4773998;30;20591;-93
2023/06/20 13:41:01;;;;;;;5.10;4.47;;;27.10;99.90;;;;;;4756683;30;20052;-92
2023/06/20 13:43:27;;;;;;;4.57;4.18;;;27.20;99.90;;;;;;4735607;30;20043;-93
2023/06/20 13:45:59;;;;;;;4.47;4.07;;;27.10;99.90;;;;;;4753640;30;20079;-94
2023/06/20 13:48:25;;;;;;;5.00;4.22;;;27.20;99.90;;;;;;4734415;30;20416;-95
2023/06/20 13:50:50;;;;;;;5.57;5.07;;;27.20;99.90;;;;;;4755169;30;20054;-93
2023/06/20 13:53:16;;;;;;;5.60;5.15;;;27.10;99.90;;;;;;4723235;30;20047;-94
2023/06/20 13:55:51;;;;;;;5.60;5.10;;;27.00;99.90;;;;;;4735704;30;20039;-94
2023/06/20 13:58:19;;;;;;;6.90;4.93;;;26.90;99.90;;;;;;4749254;30;20134;-95
2023/06/20 14:00:45;;;;;;;4.88;4.10;;;26.70;99.90;;;;;;4757311;30;20656;-94